sensor_id;sensor_type;location;lat;lon;timestamp;temperature;humidity
64012;DHT22;50211;52.768;12.124;2023-05-29T00:01:10;13.00;99.90
64012;DHT22;50211;52.768;12.124;2023-05-29T00:03:36;13.00;99.90
64012;DHT22;50211;52.768;12.124;2023-05-29T00:06:02;12.90;99.90
64012;DHT22;50211;52.768;12.124;2023-05-29T00:08:28;12.90;99.90
64012;DHT22;50211;52.768;12.124;2023-05-29T00:10:54;12.80;99.90
64012;DHT22;50211;52.768;12.124;2023-05-29T00:13:19;12.80;99.90
64012;DHT22;50211;52.768;12.124;2023-05-29T00:15:46;12.80;99.90
64012;DHT22;50211;52.768;12.124;2023-05-29T00:18:11;12.90;99.90
64012;DHT22;50211;52.768;12.124;2023-05-29T00:20:37;12.80;99.90
64012;DHT22;50211;52.768;12.124;2023-05-29T00:23:03;12.70;99.90
64012;DHT22;50211;52.768;12.124;2023-05-29T00:25:31;12.70;99.90
64012;DHT22;50211;52.768;12.124;2023-05-29T00:27:57;12.70;99.90
64012;DHT22;50211;52.768;12.124;2023-05-29T00:30:22;12.70;99.90
64012;DHT22;50211;52.768;12.124;2023-05-29T00:32:48;12.60;99.90
64012;DHT22;50211;52.768;12.124;2023-05-29T00:35:13;12.50;99.90
64012;DHT22;50211;52.768;12.124;2023-05-29T00:37:39;12.40;99.90
64012;DHT22;50211;52.768;12.124;2023-05-29T00:40:05;12.40;99.90
64012;DHT22;50211;52.768;12.124;2023-05-29T00:42:31;12.40;99.90
64012;DHT22;50211;52.768;12.124;2023-05-29T00:44:57;12.40;99.90
64012;DHT22;50211;52.768;12.124;2023-05-29T00:47:22;12.40;99.90
64012;DHT22;50211;52.768;12.124;2023-05-29T00:49:48;12.40;99.90
64012;DHT22;50211;52.768;12.124;2023-05-29T00:52:16;12.40;99.90
64012;DHT22;50211;52.768;12.124;2023-05-29T00:54:44;12.40;99.90
64012;DHT22;50211;52.768;12.124;2023-05-29T00:57:10;12.30;99.90
64012;DHT22;50211;52.768;12.124;2023-05-29T00:59:35;12.30;99.90
64012;DHT22;50211;52.768;12.124;2023-05-29T01:02:02;12.30;99.90
64012;DHT22;50211;52.768;12.124;2023-05-29T01:04:27;12.20;99.90
64012;DHT22;50211;52.768;12.124;2023-05-29T01:06:53;12.20;99.90
64012;DHT22;50211;52.768;12.124;2023-05-29T01:09:19;12.20;99.90
64012;DHT22;50211;52.768;12.124;2023-05-29T01:14:48;12.20;99.90
64012;DHT22;50211;52.768;12.124;2023-05-29T01:17:43;12.10;99.90
64012;DHT22;50211;52.768;12.124;2023-05-29T01:20:23;12.00;99.90
64012;DHT22;50211;52.768;12.124;2023-05-29T01:28:32;11.80;99.90
64012;DHT22;50211;52.768;12.124;2023-05-29T01:31:00;11.80;99.90
64012;DHT22;50211;52.768;12.124;2023-05-29T01:33:27;11.80;99.90
64012;DHT22;50211;52.768;12.124;2023-05-29T01:35:53;11.80;99.90
64012;DHT22;50211;52.768;12.124;2023-05-29T01:38:18;11.90;99.90
64012;DHT22;50211;52.768;12.124;2023-05-29T01:40:44;11.90;99.90
64012;DHT22;50211;52.768;12.124;2023-05-29T01:43:10;11.80;99.90
64012;DHT22;50211;52.768;12.124;2023-05-29T01:45:36;11.80;99.90
64012;DHT22;50211;52.768;12.124;2023-05-29T01:48:02;11.80;99.90
64012;DHT22;50211;52.768;12.124;2023-05-29T01:50:28;11.80;99.90
64012;DHT22;50211;52.768;12.124;2023-05-29T01:52:54;11.60;99.90
64012;DHT22;50211;52.768;12.124;2023-05-29T01:55:20;11.50;99.90
64012;DHT22;50211;52.768;12.124;2023-05-29T01:57:46;11.40;99.90
64012;DHT22;50211;52.768;12.124;2023-05-29T02:00:12;11.40;99.90
64012;DHT22;50211;52.768;12.124;2023-05-29T02:02:38;11.30;99.90
64012;DHT22;50211;52.768;12.124;2023-05-29T02:05:05;11.30;99.90
64012;DHT22;50211;52.768;12.124;2023-05-29T02:07:32;11.20;99.90
64012;DHT22;50211;52.768;12.124;2023-05-29T02:09:57;11.20;99.90
64012;DHT22;50211;52.768;12.124;2023-05-29T02:12:22;11.10;99.90
64012;DHT22;50211;52.768;12.124;2023-05-29T02:14:48;11.10;99.90
64012;DHT22;50211;52.768;12.124;2023-05-29T02:17:13;11.20;99.90
64012;DHT22;50211;52.768;12.124;2023-05-29T02:19:40;11.20;99.90
64012;DHT22;50211;52.768;12.124;2023-05-29T02:22:06;11.30;99.90
64012;DHT22;50211;52.768;12.124;2023-05-29T02:24:32;11.30;99.90
64012;DHT22;50211;52.768;12.124;2023-05-29T02:26:57;11.30;99.90
64012;DHT22;50211;52.768;12.124;2023-05-29T02:29:23;11.30;99.90
64012;DHT22;50211;52.768;12.124;2023-05-29T02:31:48;11.20;99.90
64012;DHT22;50211;52.768;12.124;2023-05-29T02:34:14;11.30;99.90
64012;DHT22;50211;52.768;12.124;2023-05-29T02:36:40;11.30;99.90
64012;DHT22;50211;52.768;12.124;2023-05-29T02:39:05;11.30;99.90
64012;DHT22;50211;52.768;12.124;2023-05-29T02:41:31;11.30;99.90
64012;DHT22;50211;52.768;12.124;2023-05-29T02:43:57;11.30;99.90
64012;DHT22;50211;52.768;12.124;2023-05-29T02:46:22;11.30;99.90
64012;DHT22;50211;52.768;12.124;2023-05-29T02:48:48;11.30;99.90
64012;DHT22;50211;52.768;12.124;2023-05-29T02:51:13;11.30;99.90
64012;DHT22;50211;52.768;12.124;2023-05-29T02:53:39;11.40;99.90
64012;DHT22;50211;52.768;12.124;2023-05-29T02:56:06;11.40;99.90
64012;DHT22;50211;52.768;12.124;2023-05-29T02:58:32;11.40;99.90
64012;DHT22;50211;52.768;12.124;2023-05-29T03:00:58;11.40;99.90
64012;DHT22;50211;52.768;12.124;2023-05-29T03:03:24;11.40;99.90
64012;DHT22;50211;52.768;12.124;2023-05-29T03:05:50;11.40;99.90
64012;DHT22;50211;52.768;12.124;2023-05-29T03:08:15;11.40;99.90
64012;DHT22;50211;52.768;12.124;2023-05-29T03:10:40;11.40;99.90
64012;DHT22;50211;52.768;12.124;2023-05-29T03:13:06;11.40;99.90
64012;DHT22;50211;52.768;12.124;2023-05-29T03:15:32;11.50;99.90
64012;DHT22;50211;52.768;12.124;2023-05-29T03:17:57;11.40;99.90
64012;DHT22;50211;52.768;12.124;2023-05-29T03:20:22;11.30;99.90
64012;DHT22;50211;52.768;12.124;2023-05-29T03:22:49;11.30;99.90
64012;DHT22;50211;52.768;12.124;2023-05-29T03:25:15;11.30;99.90
64012;DHT22;50211;52.768;12.124;2023-05-29T03:27:41;11.30;99.90
64012;DHT22;50211;52.768;12.124;2023-05-29T03:30:07;11.20;99.90
64012;DHT22;50211;52.768;12.124;2023-05-29T03:32:33;11.20;99.90
64012;DHT22;50211;52.768;12.124;2023-05-29T03:34:58;11.30;99.90
64012;DHT22;50211;52.768;12.124;2023-05-29T03:37:24;11.30;99.90
64012;DHT22;50211;52.768;12.124;2023-05-29T03:39:49;11.20;99.90
64012;DHT22;50211;52.768;12.124;2023-05-29T03:42:15;11.10;99.90
64012;DHT22;50211;52.768;12.124;2023-05-29T03:44:41;11.10;99.90
64012;DHT22;50211;52.768;12.124;2023-05-29T03:47:07;11.10;99.90
64012;DHT22;50211;52.768;12.124;2023-05-29T03:49:34;11.10;99.90
64012;DHT22;50211;52.768;12.124;2023-05-29T03:52:00;11.10;99.90
64012;DHT22;50211;52.768;12.124;2023-05-29T03:54:25;11.20;99.90
64012;DHT22;50211;52.768;12.124;2023-05-29T03:56:51;11.20;99.90
64012;DHT22;50211;52.768;12.124;2023-05-29T03:59:16;11.20;99.90
64012;DHT22;50211;52.768;12.124;2023-05-29T04:01:42;11.20;99.90
64012;DHT22;50211;52.768;12.124;2023-05-29T04:04:07;11.20;99.90
64012;DHT22;50211;52.768;12.124;2023-05-29T04:06:33;11.20;99.90
64012;DHT22;50211;52.768;12.124;2023-05-29T04:09:06;11.20;99.90
64012;DHT22;50211;52.768;12.124;2023-05-29T04:11:33;11.20;99.90
64012;DHT22;50211;52.768;12.124;2023-05-29T04:14:01;11.30;99.90
64012;DHT22;50211;52.768;12.124;2023-05-29T04:16:27;11.30;99.90
64012;DHT22;50211;52.768;12.124;2023-05-29T04:18:54;11.40;99.90
64012;DHT22;50211;52.768;12.124;2023-05-29T04:21:20;11.40;99.90
64012;DHT22;50211;52.768;12.124;2023-05-29T04:23:45;11.40;99.90
64012;DHT22;50211;52.768;12.124;2023-05-29T04:26:11;11.40;99.90
64012;DHT22;50211;52.768;12.124;2023-05-29T04:28:38;11.50;99.90
64012;DHT22;50211;52.768;12.124;2023-05-29T04:31:04;11.50;99.90
64012;DHT22;50211;52.768;12.124;2023-05-29T04:33:31;11.50;99.90
64012;DHT22;50211;52.768;12.124;2023-05-29T04:35:58;11.50;99.90
64012;DHT22;50211;52.768;12.124;2023-05-29T04:38:26;11.50;99.90
64012;DHT22;50211;52.768;12.124;2023-05-29T04:40:52;11.60;99.90
64012;DHT22;50211;52.768;12.124;2023-05-29T04:43:18;11.60;99.90
64012;DHT22;50211;52.768;12.124;2023-05-29T04:45:44;11.60;99.90
64012;DHT22;50211;52.768;12.124;2023-05-29T04:48:09;11.60;99.90
64012;DHT22;50211;52.768;12.124;2023-05-29T04:50:35;11.60;99.90
64012;DHT22;50211;52.768;12.124;2023-05-29T04:53:02;11.70;99.90
64012;DHT22;50211;52.768;12.124;2023-05-29T04:55:27;11.70;99.90
64012;DHT22;50211;52.768;12.124;2023-05-29T04:57:53;11.70;99.90
64012;DHT22;50211;52.768;12.124;2023-05-29T05:00:19;11.70;99.90
64012;DHT22;50211;52.768;12.124;2023-05-29T05:02:45;11.70;99.90
64012;DHT22;50211;52.768;12.124;2023-05-29T05:05:11;11.80;99.90
64012;DHT22;50211;52.768;12.124;2023-05-29T05:07:37;11.90;99.90
64012;DHT22;50211;52.768;12.124;2023-05-29T05:10:03;12.10;99.90
64012;DHT22;50211;52.768;12.124;2023-05-29T05:12:29;12.20;99.90
64012;DHT22;50211;52.768;12.124;2023-05-29T05:14:55;12.40;99.90
64012;DHT22;50211;52.768;12.124;2023-05-29T05:17:20;12.40;99.90
64012;DHT22;50211;52.768;12.124;2023-05-29T05:19:46;12.60;99.90
64012;DHT22;50211;52.768;12.124;2023-05-29T05:22:14;12.70;99.90
64012;DHT22;50211;52.768;12.124;2023-05-29T05:24:39;12.80;99.90
64012;DHT22;50211;52.768;12.124;2023-05-29T05:27:05;12.90;99.90
64012;DHT22;50211;52.768;12.124;2023-05-29T05:29:30;13.00;99.90
64012;DHT22;50211;52.768;12.124;2023-05-29T05:32:14;13.10;99.90
64012;DHT22;50211;52.768;12.124;2023-05-29T05:34:43;13.10;99.90
64012;DHT22;50211;52.768;12.124;2023-05-29T05:37:08;13.20;99.90
64012;DHT22;50211;52.768;12.124;2023-05-29T05:39:35;13.30;99.90
64012;DHT22;50211;52.768;12.124;2023-05-29T05:42:00;13.30;99.90
64012;DHT22;50211;52.768;12.124;2023-05-29T05:44:26;13.30;99.90
64012;DHT22;50211;52.768;12.124;2023-05-29T05:46:52;13.40;99.90
64012;DHT22;50211;52.768;12.124;2023-05-29T05:49:18;13.40;99.90
64012;DHT22;50211;52.768;12.124;2023-05-29T05:51:43;13.50;99.90
64012;DHT22;50211;52.768;12.124;2023-05-29T05:54:09;13.60;99.90
64012;DHT22;50211;52.768;12.124;2023-05-29T05:56:34;13.60;99.90
64012;DHT22;50211;52.768;12.124;2023-05-29T05:59:00;13.70;99.90
64012;DHT22;50211;52.768;12.124;2023-05-29T06:01:26;13.80;99.90
64012;DHT22;50211;52.768;12.124;2023-05-29T06:03:52;13.80;99.90
64012;DHT22;50211;52.768;12.124;2023-05-29T06:06:17;13.90;99.90
64012;DHT22;50211;52.768;12.124;2023-05-29T06:08:44;14.00;99.90
64012;DHT22;50211;52.768;12.124;2023-05-29T06:11:10;14.20;99.90
64012;DHT22;50211;52.768;12.124;2023-05-29T06:13:36;14.30;99.90
64012;DHT22;50211;52.768;12.124;2023-05-29T06:16:02;14.40;99.90
64012;DHT22;50211;52.768;12.124;2023-05-29T06:18:27;14.40;99.90
64012;DHT22;50211;52.768;12.124;2023-05-29T06:20:53;14.50;99.90
64012;DHT22;50211;52.768;12.124;2023-05-29T06:23:18;14.70;99.90
64012;DHT22;50211;52.768;12.124;2023-05-29T06:25:44;14.80;99.90
64012;DHT22;50211;52.768;12.124;2023-05-29T06:28:09;14.90;99.90
64012;DHT22;50211;52.768;12.124;2023-05-29T06:30:35;15.10;99.90
64012;DHT22;50211;52.768;12.124;2023-05-29T06:33:00;15.10;99.90
64012;DHT22;50211;52.768;12.124;2023-05-29T06:35:26;15.10;99.90
64012;DHT22;50211;52.768;12.124;2023-05-29T06:37:51;15.10;99.90
64012;DHT22;50211;52.768;12.124;2023-05-29T06:40:17;15.20;99.90
64012;DHT22;50211;52.768;12.124;2023-05-29T06:42:42;15.20;99.90
64012;DHT22;50211;52.768;12.124;2023-05-29T06:45:11;15.40;99.90
64012;DHT22;50211;52.768;12.124;2023-05-29T06:47:41;15.50;99.90
64012;DHT22;50211;52.768;12.124;2023-05-29T06:50:08;15.70;99.90
64012;DHT22;50211;52.768;12.124;2023-05-29T06:52:33;15.70;99.90
64012;DHT22;50211;52.768;12.124;2023-05-29T06:54:59;15.90;99.90
64012;DHT22;50211;52.768;12.124;2023-05-29T06:57:24;16.10;99.90
64012;DHT22;50211;52.768;12.124;2023-05-29T06:59:50;16.20;99.90
64012;DHT22;50211;52.768;12.124;2023-05-29T07:02:15;16.40;99.90
64012;DHT22;50211;52.768;12.124;2023-05-29T07:04:41;16.50;99.90
64012;DHT22;50211;52.768;12.124;2023-05-29T07:07:06;16.70;99.90
64012;DHT22;50211;52.768;12.124;2023-05-29T07:09:32;16.80;99.90
64012;DHT22;50211;52.768;12.124;2023-05-29T07:11:57;16.90;99.90
64012;DHT22;50211;52.768;12.124;2023-05-29T07:14:23;16.90;99.90
64012;DHT22;50211;52.768;12.124;2023-05-29T07:16:49;17.00;99.90
64012;DHT22;50211;52.768;12.124;2023-05-29T07:19:14;17.00;99.90
64012;DHT22;50211;52.768;12.124;2023-05-29T07:21:40;17.20;99.90
64012;DHT22;50211;52.768;12.124;2023-05-29T07:24:05;17.50;99.90
64012;DHT22;50211;52.768;12.124;2023-05-29T07:26:31;17.50;99.90
64012;DHT22;50211;52.768;12.124;2023-05-29T07:28:57;17.30;99.90
64012;DHT22;50211;52.768;12.124;2023-05-29T07:31:23;17.40;99.90
64012;DHT22;50211;52.768;12.124;2023-05-29T07:33:48;17.70;99.90
64012;DHT22;50211;52.768;12.124;2023-05-29T07:36:15;17.90;99.90
64012;DHT22;50211;52.768;12.124;2023-05-29T07:38:42;18.00;99.90
64012;DHT22;50211;52.768;12.124;2023-05-29T07:41:08;18.10;99.90
64012;DHT22;50211;52.768;12.124;2023-05-29T07:43:33;18.20;99.90
64012;DHT22;50211;52.768;12.124;2023-05-29T07:45:59;18.40;99.90
64012;DHT22;50211;52.768;12.124;2023-05-29T07:48:24;18.60;99.90
64012;DHT22;50211;52.768;12.124;2023-05-29T07:50:50;18.80;99.90
64012;DHT22;50211;52.768;12.124;2023-05-29T07:53:17;18.90;99.90
64012;DHT22;50211;52.768;12.124;2023-05-29T07:55:42;19.00;99.90
64012;DHT22;50211;52.768;12.124;2023-05-29T07:58:08;19.20;99.90
64012;DHT22;50211;52.768;12.124;2023-05-29T08:00:36;19.40;99.90
64012;DHT22;50211;52.768;12.124;2023-05-29T08:03:03;19.60;99.90
64012;DHT22;50211;52.768;12.124;2023-05-29T08:05:29;19.80;99.90
64012;DHT22;50211;52.768;12.124;2023-05-29T08:07:54;19.90;99.90
64012;DHT22;50211;52.768;12.124;2023-05-29T08:10:20;20.00;99.90
64012;DHT22;50211;52.768;12.124;2023-05-29T08:12:46;20.30;99.90
64012;DHT22;50211;52.768;12.124;2023-05-29T08:15:12;20.60;99.90
64012;DHT22;50211;52.768;12.124;2023-05-29T08:17:38;20.70;99.90
64012;DHT22;50211;52.768;12.124;2023-05-29T08:20:04;20.30;99.90
64012;DHT22;50211;52.768;12.124;2023-05-29T08:22:35;20.10;99.90
64012;DHT22;50211;52.768;12.124;2023-05-29T08:25:00;20.30;99.90
64012;DHT22;50211;52.768;12.124;2023-05-29T08:27:26;20.60;99.90
64012;DHT22;50211;52.768;12.124;2023-05-29T08:29:52;20.80;99.90
64012;DHT22;50211;52.768;12.124;2023-05-29T08:32:17;20.80;99.90
64012;DHT22;50211;52.768;12.124;2023-05-29T08:34:43;21.00;99.90
64012;DHT22;50211;52.768;12.124;2023-05-29T08:37:10;21.20;99.90
64012;DHT22;50211;52.768;12.124;2023-05-29T08:39:36;21.30;99.90
64012;DHT22;50211;52.768;12.124;2023-05-29T08:42:07;21.80;99.90
64012;DHT22;50211;52.768;12.124;2023-05-29T08:44:33;21.70;99.90
64012;DHT22;50211;52.768;12.124;2023-05-29T08:47:03;21.50;99.90
64012;DHT22;50211;52.768;12.124;2023-05-29T08:49:32;21.40;99.90
64012;DHT22;50211;52.768;12.124;2023-05-29T08:52:12;21.70;99.90
64012;DHT22;50211;52.768;12.124;2023-05-29T08:54:40;21.90;99.90
64012;DHT22;50211;52.768;12.124;2023-05-29T08:57:05;21.50;99.90
64012;DHT22;50211;52.768;12.124;2023-05-29T08:59:32;21.30;99.90
64012;DHT22;50211;52.768;12.124;2023-05-29T09:01:58;21.60;99.90
64012;DHT22;50211;52.768;12.124;2023-05-29T09:04:23;21.80;99.90
64012;DHT22;50211;52.768;12.124;2023-05-29T09:06:49;21.60;99.90
64012;DHT22;50211;52.768;12.124;2023-05-29T09:09:15;21.20;99.90
64012;DHT22;50211;52.768;12.124;2023-05-29T09:11:41;21.20;99.90
64012;DHT22;50211;52.768;12.124;2023-05-29T09:14:31;21.60;99.90
64012;DHT22;50211;52.768;12.124;2023-05-29T09:16:57;22.10;99.90
64012;DHT22;50211;52.768;12.124;2023-05-29T09:19:22;22.50;99.90
64012;DHT22;50211;52.768;12.124;2023-05-29T09:21:48;22.50;99.90
64012;DHT22;50211;52.768;12.124;2023-05-29T09:24:14;22.30;99.90
64012;DHT22;50211;52.768;12.124;2023-05-29T09:26:50;22.70;99.90
64012;DHT22;50211;52.768;12.124;2023-05-29T09:29:16;22.90;99.90
64012;DHT22;50211;52.768;12.124;2023-05-29T09:31:48;22.80;99.90
64012;DHT22;50211;52.768;12.124;2023-05-29T09:34:13;23.00;99.90
64012;DHT22;50211;52.768;12.124;2023-05-29T09:36:39;22.20;99.90
64012;DHT22;50211;52.768;12.124;2023-05-29T09:39:05;21.70;99.90
64012;DHT22;50211;52.768;12.124;2023-05-29T09:41:40;21.90;99.90
64012;DHT22;50211;52.768;12.124;2023-05-29T09:44:06;22.50;99.90
64012;DHT22;50211;52.768;12.124;2023-05-29T09:46:35;22.90;99.90
64012;DHT22;50211;52.768;12.124;2023-05-29T09:49:11;22.30;99.90
64012;DHT22;50211;52.768;12.124;2023-05-29T09:51:37;21.90;99.90
64012;DHT22;50211;52.768;12.124;2023-05-29T09:54:14;22.00;99.90
64012;DHT22;50211;52.768;12.124;2023-05-29T09:56:42;21.80;99.90
64012;DHT22;50211;52.768;12.124;2023-05-29T09:59:11;22.30;99.90
64012;DHT22;50211;52.768;12.124;2023-05-29T10:01:41;22.50;99.90
64012;DHT22;50211;52.768;12.124;2023-05-29T10:04:10;22.20;99.90
64012;DHT22;50211;52.768;12.124;2023-05-29T10:06:37;22.10;99.90
64012;DHT22;50211;52.768;12.124;2023-05-29T10:09:06;21.70;99.90
64012;DHT22;50211;52.768;12.124;2023-05-29T10:11:35;22.30;99.90
64012;DHT22;50211;52.768;12.124;2023-05-29T10:14:03;22.90;99.90
64012;DHT22;50211;52.768;12.124;2023-05-29T10:16:31;23.40;99.90
64012;DHT22;50211;52.768;12.124;2023-05-29T10:19:01;23.50;99.90
64012;DHT22;50211;52.768;12.124;2023-05-29T10:21:33;23.50;99.90
64012;DHT22;50211;52.768;12.124;2023-05-29T10:24:03;23.40;99.90
64012;DHT22;50211;52.768;12.124;2023-05-29T10:26:36;23.00;99.90
64012;DHT22;50211;52.768;12.124;2023-05-29T10:32:28;23.60;99.90
64012;DHT22;50211;52.768;12.124;2023-05-29T10:35:14;23.40;99.90
64012;DHT22;50211;52.768;12.124;2023-05-29T10:37:59;23.70;99.90
64012;DHT22;50211;52.768;12.124;2023-05-29T10:40:26;24.20;99.90
64012;DHT22;50211;52.768;12.124;2023-05-29T10:42:53;24.50;97.10
64012;DHT22;50211;52.768;12.124;2023-05-29T10:50:47;24.80;97.80
64012;DHT22;50211;52.768;12.124;2023-05-29T10:53:17;24.00;98.50
64012;DHT22;50211;52.768;12.124;2023-05-29T10:55:45;23.80;99.20
64012;DHT22;50211;52.768;12.124;2023-05-29T10:58:17;23.50;99.20
64012;DHT22;50211;52.768;12.124;2023-05-29T11:00:45;23.80;99.80
64012;DHT22;50211;52.768;12.124;2023-05-29T11:03:31;24.20;99.90
64012;DHT22;50211;52.768;12.124;2023-05-29T11:06:03;24.20;99.10
64012;DHT22;50211;52.768;12.124;2023-05-29T11:11:15;23.30;99.60
64012;DHT22;50211;52.768;12.124;2023-05-29T11:13:41;23.50;99.80
64012;DHT22;50211;52.768;12.124;2023-05-29T11:18:56;25.00;99.70
64012;DHT22;50211;52.768;12.124;2023-05-29T11:21:45;25.20;97.00
64012;DHT22;50211;52.768;12.124;2023-05-29T11:24:26;24.10;96.00
64012;DHT22;50211;52.768;12.124;2023-05-29T11:26:53;23.60;95.80
64012;DHT22;50211;52.768;12.124;2023-05-29T11:29:27;23.50;97.40
64012;DHT22;50211;52.768;12.124;2023-05-29T11:32:04;23.40;96.80
64012;DHT22;50211;52.768;12.124;2023-05-29T11:34:31;24.10;97.90
64012;DHT22;50211;52.768;12.124;2023-05-29T11:37:00;24.30;95.40
64012;DHT22;50211;52.768;12.124;2023-05-29T11:39:27;23.80;96.90
64012;DHT22;50211;52.768;12.124;2023-05-29T11:41:52;23.80;95.30
64012;DHT22;50211;52.768;12.124;2023-05-29T11:44:18;23.60;96.20
64012;DHT22;50211;52.768;12.124;2023-05-29T11:46:44;23.70;96.40
64012;DHT22;50211;52.768;12.124;2023-05-29T11:49:10;23.80;96.90
64012;DHT22;50211;52.768;12.124;2023-05-29T11:51:35;24.00;95.00
64012;DHT22;50211;52.768;12.124;2023-05-29T11:54:02;24.50;96.40
64012;DHT22;50211;52.768;12.124;2023-05-29T11:56:28;25.30;96.30
64012;DHT22;50211;52.768;12.124;2023-05-29T11:58:54;25.30;95.80
64012;DHT22;50211;52.768;12.124;2023-05-29T12:01:23;25.10;95.20
64012;DHT22;50211;52.768;12.124;2023-05-29T12:03:52;25.30;95.60
64012;DHT22;50211;52.768;12.124;2023-05-29T12:06:44;25.70;95.30
64012;DHT22;50211;52.768;12.124;2023-05-29T12:09:23;25.90;91.00
64012;DHT22;50211;52.768;12.124;2023-05-29T12:11:50;25.10;92.60
64012;DHT22;50211;52.768;12.124;2023-05-29T12:14:16;24.90;93.80
64012;DHT22;50211;52.768;12.124;2023-05-29T12:16:41;25.00;94.80
64012;DHT22;50211;52.768;12.124;2023-05-29T12:19:07;25.30;93.80
64012;DHT22;50211;52.768;12.124;2023-05-29T12:21:33;25.40;92.00
64012;DHT22;50211;52.768;12.124;2023-05-29T12:23:58;25.10;93.50
64012;DHT22;50211;52.768;12.124;2023-05-29T12:26:24;25.80;93.70
64012;DHT22;50211;52.768;12.124;2023-05-29T12:28:52;26.30;92.50
64012;DHT22;50211;52.768;12.124;2023-05-29T12:31:30;26.20;92.30
64012;DHT22;50211;52.768;12.124;2023-05-29T12:34:08;26.90;91.60
64012;DHT22;50211;52.768;12.124;2023-05-29T12:36:33;27.20;90.50
64012;DHT22;50211;52.768;12.124;2023-05-29T12:38:59;27.20;91.90
64012;DHT22;50211;52.768;12.124;2023-05-29T12:41:27;27.40;91.80
64012;DHT22;50211;52.768;12.124;2023-05-29T12:43:57;27.80;91.20
64012;DHT22;50211;52.768;12.124;2023-05-29T12:46:24;27.20;91.20
64012;DHT22;50211;52.768;12.124;2023-05-29T12:48:55;27.40;89.20
64012;DHT22;50211;52.768;12.124;2023-05-29T12:51:26;27.40;91.80
64012;DHT22;50211;52.768;12.124;2023-05-29T12:53:52;27.40;90.00
64012;DHT22;50211;52.768;12.124;2023-05-29T12:56:23;27.10;87.90
64012;DHT22;50211;52.768;12.124;2023-05-29T12:58:50;26.80;87.30
64012;DHT22;50211;52.768;12.124;2023-05-29T13:01:17;25.90;89.00
64012;DHT22;50211;52.768;12.124;2023-05-29T13:03:42;25.60;90.40
64012;DHT22;50211;52.768;12.124;2023-05-29T13:06:10;24.80;91.10
64012;DHT22;50211;52.768;12.124;2023-05-29T13:08:35;24.50;90.50
64012;DHT22;50211;52.768;12.124;2023-05-29T13:11:01;24.50;91.10
64012;DHT22;50211;52.768;12.124;2023-05-29T13:13:27;24.90;91.50
64012;DHT22;50211;52.768;12.124;2023-05-29T13:15:52;25.40;92.20
64012;DHT22;50211;52.768;12.124;2023-05-29T13:18:17;25.90;90.30
64012;DHT22;50211;52.768;12.124;2023-05-29T13:20:43;25.90;87.90
64012;DHT22;50211;52.768;12.124;2023-05-29T13:23:08;25.40;87.70
64012;DHT22;50211;52.768;12.124;2023-05-29T13:25:34;25.80;90.90
64012;DHT22;50211;52.768;12.124;2023-05-29T13:28:00;26.30;90.00
64012;DHT22;50211;52.768;12.124;2023-05-29T13:30:25;26.50;90.70
64012;DHT22;50211;52.768;12.124;2023-05-29T13:32:51;26.90;85.10
64012;DHT22;50211;52.768;12.124;2023-05-29T13:35:17;27.20;83.60
64012;DHT22;50211;52.768;12.124;2023-05-29T13:37:43;26.90;83.10
64012;DHT22;50211;52.768;12.124;2023-05-29T13:40:09;27.20;83.40
64012;DHT22;50211;52.768;12.124;2023-05-29T13:42:35;26.70;82.70
64012;DHT22;50211;52.768;12.124;2023-05-29T13:45:01;26.20;78.90
64012;DHT22;50211;52.768;12.124;2023-05-29T13:47:27;25.50;80.20
64012;DHT22;50211;52.768;12.124;2023-05-29T13:49:54;25.30;81.90
64012;DHT22;50211;52.768;12.124;2023-05-29T13:52:19;25.30;79.40
64012;DHT22;50211;52.768;12.124;2023-05-29T13:54:45;24.90;81.20
64012;DHT22;50211;52.768;12.124;2023-05-29T13:57:10;25.30;82.90
64012;DHT22;50211;52.768;12.124;2023-05-29T13:59:36;25.30;83.10
64012;DHT22;50211;52.768;12.124;2023-05-29T14:02:02;24.30;82.40
64012;DHT22;50211;52.768;12.124;2023-05-29T14:04:29;24.60;83.80
64012;DHT22;50211;52.768;12.124;2023-05-29T14:06:55;25.20;79.50
64012;DHT22;50211;52.768;12.124;2023-05-29T14:09:22;25.60;80.90
64012;DHT22;50211;52.768;12.124;2023-05-29T14:11:57;26.00;82.70
64012;DHT22;50211;52.768;12.124;2023-05-29T14:14:24;25.40;79.80
64012;DHT22;50211;52.768;12.124;2023-05-29T14:16:50;25.60;85.80
64012;DHT22;50211;52.768;12.124;2023-05-29T14:19:17;26.00;80.90
64012;DHT22;50211;52.768;12.124;2023-05-29T14:21:43;26.20;77.00
64012;DHT22;50211;52.768;12.124;2023-05-29T14:24:08;26.70;75.80
64012;DHT22;50211;52.768;12.124;2023-05-29T14:26:34;27.00;74.50
64012;DHT22;50211;52.768;12.124;2023-05-29T14:29:00;27.20;75.40
64012;DHT22;50211;52.768;12.124;2023-05-29T14:31:26;27.50;73.00
64012;DHT22;50211;52.768;12.124;2023-05-29T14:33:51;27.50;76.20
64012;DHT22;50211;52.768;12.124;2023-05-29T14:36:17;27.50;69.90
64012;DHT22;50211;52.768;12.124;2023-05-29T14:38:42;27.00;72.10
64012;DHT22;50211;52.768;12.124;2023-05-29T14:41:10;27.00;73.90
64012;DHT22;50211;52.768;12.124;2023-05-29T14:43:37;27.10;74.70
64012;DHT22;50211;52.768;12.124;2023-05-29T14:46:03;27.10;71.80
64012;DHT22;50211;52.768;12.124;2023-05-29T14:48:31;27.10;70.00
64012;DHT22;50211;52.768;12.124;2023-05-29T14:50:57;27.20;70.50
64012;DHT22;50211;52.768;12.124;2023-05-29T14:53:22;27.00;68.50
64012;DHT22;50211;52.768;12.124;2023-05-29T14:55:49;27.10;72.50
64012;DHT22;50211;52.768;12.124;2023-05-29T14:58:14;26.60;69.10
64012;DHT22;50211;52.768;12.124;2023-05-29T15:00:40;26.10;74.60
64012;DHT22;50211;52.768;12.124;2023-05-29T15:03:05;26.10;69.40
64012;DHT22;50211;52.768;12.124;2023-05-29T15:05:31;26.30;71.30
64012;DHT22;50211;52.768;12.124;2023-05-29T15:07:56;26.50;70.20
64012;DHT22;50211;52.768;12.124;2023-05-29T15:10:25;26.50;71.60
64012;DHT22;50211;52.768;12.124;2023-05-29T15:12:52;26.40;68.00
64012;DHT22;50211;52.768;12.124;2023-05-29T15:15:28;25.90;66.90
64012;DHT22;50211;52.768;12.124;2023-05-29T15:17:54;25.70;68.40
64012;DHT22;50211;52.768;12.124;2023-05-29T15:20:23;25.60;70.90
64012;DHT22;50211;52.768;12.124;2023-05-29T15:22:50;25.30;70.10
64012;DHT22;50211;52.768;12.124;2023-05-29T15:25:16;25.20;76.00
64012;DHT22;50211;52.768;12.124;2023-05-29T15:27:42;25.10;72.90
64012;DHT22;50211;52.768;12.124;2023-05-29T15:30:10;24.90;72.50
64012;DHT22;50211;52.768;12.124;2023-05-29T15:32:36;24.90;70.80
64012;DHT22;50211;52.768;12.124;2023-05-29T15:35:01;24.50;73.80
64012;DHT22;50211;52.768;12.124;2023-05-29T15:37:27;24.20;68.50